sensor_id;sensor_type;location;lat;lon;timestamp;P1;durP1;ratioP1;P2;durP2;ratioP2
5710;SDS011;61291;52.524;13.422;2023-06-14T00:01:51;49.00;;;46.03;;
5710;SDS011;61291;52.524;13.422;2023-06-14T00:04:16;61.77;;;58.00;;
5710;SDS011;61291;52.524;13.422;2023-06-14T00:06:43;62.90;;;59.10;;
5710;SDS011;61291;52.524;13.422;2023-06-14T00:09:13;62.67;;;58.07;;
5710;SDS011;61291;52.524;13.422;2023-06-14T00:11:39;62.40;;;58.80;;
5710;SDS011;61291;52.524;13.422;2023-06-14T00:14:06;61.90;;;57.97;;
5710;SDS011;61291;52.524;13.422;2023-06-14T00:16:31;63.37;;;59.00;;
5710;SDS011;61291;52.524;13.422;2023-06-14T00:19:00;63.07;;;59.27;;
5710;SDS011;61291;52.524;13.422;2023-06-14T00:21:28;61.50;;;57.70;;
5710;SDS011;61291;52.524;13.422;2023-06-14T00:23:54;62.27;;;58.50;;
5710;SDS011;61291;52.524;13.422;2023-06-14T00:26:20;62.70;;;58.90;;
5710;SDS011;61291;52.524;13.422;2023-06-14T00:28:46;61.30;;;57.20;;
5710;SDS011;61291;52.524;13.422;2023-06-14T00:31:11;62.40;;;58.20;;
5710;SDS011;61291;52.524;13.422;2023-06-14T00:33:37;60.83;;;56.93;;
5710;SDS011;61291;52.524;13.422;2023-06-14T00:36:02;62.57;;;58.67;;
5710;SDS011;61291;52.524;13.422;2023-06-14T00:38:28;61.23;;;57.30;;
5710;SDS011;61291;52.524;13.422;2023-06-14T00:40:53;61.17;;;56.83;;
5710;SDS011;61291;52.524;13.422;2023-06-14T00:43:19;62.63;;;58.10;;
5710;SDS011;61291;52.524;13.422;2023-06-14T00:45:44;59.33;;;55.83;;
5710;SDS011;61291;52.524;13.422;2023-06-14T00:48:10;62.17;;;58.07;;
5710;SDS011;61291;52.524;13.422;2023-06-14T00:50:36;61.70;;;58.03;;
5710;SDS011;61291;52.524;13.422;2023-06-14T00:53:03;61.53;;;57.77;;
5710;SDS011;61291;52.524;13.422;2023-06-14T00:55:29;62.30;;;58.60;;
5710;SDS011;61291;52.524;13.422;2023-06-14T00:57:55;63.00;;;58.23;;
5710;SDS011;61291;52.524;13.422;2023-06-14T01:00:21;63.90;;;59.90;;
5710;SDS011;61291;52.524;13.422;2023-06-14T01:02:47;61.90;;;58.10;;
5710;SDS011;61291;52.524;13.422;2023-06-14T01:05:14;61.97;;;58.07;;
5710;SDS011;61291;52.524;13.422;2023-06-14T01:10:46;61.90;;;58.00;;
5710;SDS011;61291;52.524;13.422;2023-06-14T01:13:38;60.67;;;56.97;;
5710;SDS011;61291;52.524;13.422;2023-06-14T01:16:05;62.90;;;59.10;;
5710;SDS011;61291;52.524;13.422;2023-06-14T01:18:32;63.37;;;59.07;;
5710;SDS011;61291;52.524;13.422;2023-06-14T01:20:58;63.97;;;59.53;;
5710;SDS011;61291;52.524;13.422;2023-06-14T01:23:24;62.30;;;58.10;;
5710;SDS011;61291;52.524;13.422;2023-06-14T01:25:57;59.13;;;55.53;;
5710;SDS011;61291;52.524;13.422;2023-06-14T01:28:23;64.63;;;60.50;;
5710;SDS011;61291;52.524;13.422;2023-06-14T01:30:52;64.60;;;60.47;;
5710;SDS011;61291;52.524;13.422;2023-06-14T01:33:20;64.63;;;60.47;;
5710;SDS011;61291;52.524;13.422;2023-06-14T01:35:48;64.50;;;60.50;;
5710;SDS011;61291;52.524;13.422;2023-06-14T01:38:15;61.57;;;57.27;;
5710;SDS011;61291;52.524;13.422;2023-06-14T01:40:42;66.90;;;61.63;;
5710;SDS011;61291;52.524;13.422;2023-06-14T01:43:09;62.27;;;58.10;;
5710;SDS011;61291;52.524;13.422;2023-06-14T01:45:37;62.80;;;58.80;;
5710;SDS011;61291;52.524;13.422;2023-06-14T01:48:05;64.53;;;60.10;;
5710;SDS011;61291;52.524;13.422;2023-06-14T01:50:31;64.23;;;59.80;;
5710;SDS011;61291;52.524;13.422;2023-06-14T01:52:56;61.87;;;57.97;;
5710;SDS011;61291;52.524;13.422;2023-06-14T01:55:22;61.07;;;57.27;;
5710;SDS011;61291;52.524;13.422;2023-06-14T01:57:49;61.80;;;57.90;;
5710;SDS011;61291;52.524;13.422;2023-06-14T02:00:15;63.13;;;58.50;;
5710;SDS011;61291;52.524;13.422;2023-06-14T02:02:43;62.33;;;58.03;;
5710;SDS011;61291;52.524;13.422;2023-06-14T02:05:09;61.57;;;57.53;;
5710;SDS011;61291;52.524;13.422;2023-06-14T02:07:35;63.57;;;59.40;;
5710;SDS011;61291;52.524;13.422;2023-06-14T02:10:01;69.67;;;64.40;;
5710;SDS011;61291;52.524;13.422;2023-06-14T02:12:27;65.33;;;61.10;;
5710;SDS011;61291;52.524;13.422;2023-06-14T02:14:53;65.97;;;61.43;;
5710;SDS011;61291;52.524;13.422;2023-06-14T02:17:19;64.40;;;60.30;;
5710;SDS011;61291;52.524;13.422;2023-06-14T02:19:45;68.10;;;63.83;;
5710;SDS011;61291;52.524;13.422;2023-06-14T02:22:10;66.90;;;61.27;;
5710;SDS011;61291;52.524;13.422;2023-06-14T02:24:36;67.93;;;63.37;;
5710;SDS011;61291;52.524;13.422;2023-06-14T02:27:02;66.83;;;62.40;;
5710;SDS011;61291;52.524;13.422;2023-06-14T02:29:28;74.07;;;68.90;;
5710;SDS011;61291;52.524;13.422;2023-06-14T02:31:53;70.17;;;65.47;;
5710;SDS011;61291;52.524;13.422;2023-06-14T02:34:19;70.03;;;65.53;;
5710;SDS011;61291;52.524;13.422;2023-06-14T02:36:46;71.90;;;67.37;;
5710;SDS011;61291;52.524;13.422;2023-06-14T02:39:12;71.40;;;66.80;;
5710;SDS011;61291;52.524;13.422;2023-06-14T02:41:38;74.37;;;69.77;;
5710;SDS011;61291;52.524;13.422;2023-06-14T02:44:04;69.37;;;64.83;;
5710;SDS011;61291;52.524;13.422;2023-06-14T02:46:30;65.13;;;60.60;;
5710;SDS011;61291;52.524;13.422;2023-06-14T02:48:55;71.03;;;66.07;;
5710;SDS011;61291;52.524;13.422;2023-06-14T02:51:21;68.70;;;63.80;;
5710;SDS011;61291;52.524;13.422;2023-06-14T02:53:46;66.83;;;62.07;;
5710;SDS011;61291;52.524;13.422;2023-06-14T02:56:11;67.00;;;62.70;;
5710;SDS011;61291;52.524;13.422;2023-06-14T02:58:37;72.40;;;67.67;;
5710;SDS011;61291;52.524;13.422;2023-06-14T03:01:04;66.07;;;61.30;;
5710;SDS011;61291;52.524;13.422;2023-06-14T03:03:30;63.47;;;59.27;;
5710;SDS011;61291;52.524;13.422;2023-06-14T03:05:56;64.73;;;60.43;;
5710;SDS011;61291;52.524;13.422;2023-06-14T03:08:22;61.65;;;57.28;;
5710;SDS011;61291;52.524;13.422;2023-06-14T03:10:51;64.97;;;59.53;;
5710;SDS011;61291;52.524;13.422;2023-06-14T03:13:17;69.10;;;64.70;;
5710;SDS011;61291;52.524;13.422;2023-06-14T03:15:46;64.77;;;60.60;;
5710;SDS011;61291;52.524;13.422;2023-06-14T03:18:15;62.13;;;57.90;;
5710;SDS011;61291;52.524;13.422;2023-06-14T03:20:41;65.23;;;60.10;;
5710;SDS011;61291;52.524;13.422;2023-06-14T03:23:10;68.57;;;64.17;;
5710;SDS011;61291;52.524;13.422;2023-06-14T03:25:36;66.43;;;61.60;;
5710;SDS011;61291;52.524;13.422;2023-06-14T03:28:03;66.47;;;62.17;;
5710;SDS011;61291;52.524;13.422;2023-06-14T03:30:29;66.57;;;62.23;;
5710;SDS011;61291;52.524;13.422;2023-06-14T03:32:55;64.50;;;60.27;;
5710;SDS011;61291;52.524;13.422;2023-06-14T03:35:21;68.20;;;63.77;;
5710;SDS011;61291;52.524;13.422;2023-06-14T03:37:47;63.25;;;58.78;;
5710;SDS011;61291;52.524;13.422;2023-06-14T03:40:14;71.17;;;66.40;;
5710;SDS011;61291;52.524;13.422;2023-06-14T03:42:41;67.13;;;62.40;;
5710;SDS011;61291;52.524;13.422;2023-06-14T03:45:07;65.90;;;61.60;;
5710;SDS011;61291;52.524;13.422;2023-06-14T03:47:33;65.23;;;61.07;;
5710;SDS011;61291;52.524;13.422;2023-06-14T03:49:59;67.70;;;63.10;;
5710;SDS011;61291;52.524;13.422;2023-06-14T03:52:26;64.37;;;60.07;;
5710;SDS011;61291;52.524;13.422;2023-06-14T03:54:51;63.43;;;59.10;;
5710;SDS011;61291;52.524;13.422;2023-06-14T03:57:17;65.50;;;61.30;;
5710;SDS011;61291;52.524;13.422;2023-06-14T03:59:43;64.53;;;60.33;;
5710;SDS011;61291;52.524;13.422;2023-06-14T04:02:08;64.53;;;60.40;;
5710;SDS011;61291;52.524;13.422;2023-06-14T04:04:34;62.83;;;57.60;;
5710;SDS011;61291;52.524;13.422;2023-06-14T04:07:00;66.50;;;62.20;;
5710;SDS011;61291;52.524;13.422;2023-06-14T04:09:28;67.40;;;61.90;;
5710;SDS011;61291;52.524;13.422;2023-06-14T04:11:54;65.83;;;61.13;;
5710;SDS011;61291;52.524;13.422;2023-06-14T04:14:20;67.13;;;62.63;;
5710;SDS011;61291;52.524;13.422;2023-06-14T04:16:46;68.97;;;64.30;;
5710;SDS011;61291;52.524;13.422;2023-06-14T04:19:12;67.90;;;63.20;;
5710;SDS011;61291;52.524;13.422;2023-06-14T04:21:38;63.50;;;59.30;;
5710;SDS011;61291;52.524;13.422;2023-06-14T04:24:03;63.07;;;58.67;;
5710;SDS011;61291;52.524;13.422;2023-06-14T04:26:29;67.40;;;62.20;;
5710;SDS011;61291;52.524;13.422;2023-06-14T04:28:58;65.77;;;61.37;;
5710;SDS011;61291;52.524;13.422;2023-06-14T04:31:28;66.70;;;62.20;;
5710;SDS011;61291;52.524;13.422;2023-06-14T04:33:54;65.43;;;61.20;;
5710;SDS011;61291;52.524;13.422;2023-06-14T04:36:20;70.63;;;65.50;;
5710;SDS011;61291;52.524;13.422;2023-06-14T04:38:46;64.37;;;60.00;;
5710;SDS011;61291;52.524;13.422;2023-06-14T04:41:11;66.33;;;61.27;;
5710;SDS011;61291;52.524;13.422;2023-06-14T04:43:37;61.07;;;57.00;;
5710;SDS011;61291;52.524;13.422;2023-06-14T04:46:06;71.17;;;65.30;;
5710;SDS011;61291;52.524;13.422;2023-06-14T04:48:35;66.40;;;61.90;;
5710;SDS011;61291;52.524;13.422;2023-06-14T04:51:06;68.27;;;63.80;;
5710;SDS011;61291;52.524;13.422;2023-06-14T04:53:32;66.97;;;62.27;;
5710;SDS011;61291;52.524;13.422;2023-06-14T04:55:57;70.03;;;65.40;;
5710;SDS011;61291;52.524;13.422;2023-06-14T04:58:23;70.67;;;65.67;;
5710;SDS011;61291;52.524;13.422;2023-06-14T05:00:48;77.50;;;71.93;;
5710;SDS011;61291;52.524;13.422;2023-06-14T05:03:14;67.03;;;62.67;;
5710;SDS011;61291;52.524;13.422;2023-06-14T05:05:40;72.27;;;67.57;;
5710;SDS011;61291;52.524;13.422;2023-06-14T05:08:06;69.33;;;64.63;;
5710;SDS011;61291;52.524;13.422;2023-06-14T05:10:32;66.63;;;61.90;;
5710;SDS011;61291;52.524;13.422;2023-06-14T05:12:59;64.70;;;60.33;;
5710;SDS011;61291;52.524;13.422;2023-06-14T05:15:25;70.20;;;64.30;;
5710;SDS011;61291;52.524;13.422;2023-06-14T05:17:51;69.67;;;64.67;;
5710;SDS011;61291;52.524;13.422;2023-06-14T05:20:20;71.13;;;66.43;;
5710;SDS011;61291;52.524;13.422;2023-06-14T05:22:47;69.37;;;64.87;;
5710;SDS011;61291;52.524;13.422;2023-06-14T05:25:15;68.27;;;62.47;;
5710;SDS011;61291;52.524;13.422;2023-06-14T05:27:40;67.07;;;61.60;;
5710;SDS011;61291;52.524;13.422;2023-06-14T05:30:06;70.20;;;65.33;;
5710;SDS011;61291;52.524;13.422;2023-06-14T05:32:33;70.97;;;65.93;;
5710;SDS011;61291;52.524;13.422;2023-06-14T05:34:59;69.10;;;64.10;;
5710;SDS011;61291;52.524;13.422;2023-06-14T05:37:24;69.77;;;64.97;;
5710;SDS011;61291;52.524;13.422;2023-06-14T05:39:50;67.90;;;63.10;;
5710;SDS011;61291;52.524;13.422;2023-06-14T05:42:15;68.13;;;63.53;;
5710;SDS011;61291;52.524;13.422;2023-06-14T05:44:41;70.10;;;65.50;;
5710;SDS011;61291;52.524;13.422;2023-06-14T05:47:06;71.20;;;66.20;;
5710;SDS011;61291;52.524;13.422;2023-06-14T05:49:31;68.07;;;63.50;;
5710;SDS011;61291;52.524;13.422;2023-06-14T05:51:57;65.63;;;60.20;;
5710;SDS011;61291;52.524;13.422;2023-06-14T05:54:22;70.40;;;65.60;;
5710;SDS011;61291;52.524;13.422;2023-06-14T05:56:48;71.17;;;66.07;;
5710;SDS011;61291;52.524;13.422;2023-06-14T05:59:13;67.60;;;62.87;;
5710;SDS011;61291;52.524;13.422;2023-06-14T06:01:39;59.87;;;55.30;;
5710;SDS011;61291;52.524;13.422;2023-06-14T06:04:07;77.50;;;72.20;;
5710;SDS011;61291;52.524;13.422;2023-06-14T06:06:32;78.00;;;72.70;;
5710;SDS011;61291;52.524;13.422;2023-06-14T06:08:58;71.80;;;65.87;;
5710;SDS011;61291;52.524;13.422;2023-06-14T06:11:25;69.83;;;64.80;;
5710;SDS011;61291;52.524;13.422;2023-06-14T06:13:50;71.53;;;65.57;;
5710;SDS011;61291;52.524;13.422;2023-06-14T06:16:16;71.27;;;66.47;;
5710;SDS011;61291;52.524;13.422;2023-06-14T06:18:41;79.13;;;74.07;;
5710;SDS011;61291;52.524;13.422;2023-06-14T06:21:07;75.30;;;70.03;;
5710;SDS011;61291;52.524;13.422;2023-06-14T06:23:32;74.03;;;68.47;;
5710;SDS011;61291;52.524;13.422;2023-06-14T06:25:58;70.70;;;65.67;;
5710;SDS011;61291;52.524;13.422;2023-06-14T06:28:23;72.50;;;67.20;;
5710;SDS011;61291;52.524;13.422;2023-06-14T06:30:49;76.17;;;70.47;;
5710;SDS011;61291;52.524;13.422;2023-06-14T06:33:15;74.30;;;68.70;;
5710;SDS011;61291;52.524;13.422;2023-06-14T06:35:41;71.00;;;66.20;;
5710;SDS011;61291;52.524;13.422;2023-06-14T06:38:07;71.63;;;66.43;;
5710;SDS011;61291;52.524;13.422;2023-06-14T06:40:34;74.20;;;69.10;;
5710;SDS011;61291;52.524;13.422;2023-06-14T06:43:01;69.80;;;64.37;;
5710;SDS011;61291;52.524;13.422;2023-06-14T06:45:27;68.40;;;63.07;;
5710;SDS011;61291;52.524;13.422;2023-06-14T06:47:53;68.67;;;62.93;;
5710;SDS011;61291;52.524;13.422;2023-06-14T06:50:18;69.30;;;64.27;;
5710;SDS011;61291;52.524;13.422;2023-06-14T06:52:53;74.07;;;68.43;;
5710;SDS011;61291;52.524;13.422;2023-06-14T06:55:20;76.87;;;71.67;;
5710;SDS011;61291;52.524;13.422;2023-06-14T06:57:45;74.97;;;69.50;;
5710;SDS011;61291;52.524;13.422;2023-06-14T07:00:11;77.67;;;71.10;;
5710;SDS011;61291;52.524;13.422;2023-06-14T07:02:37;76.57;;;71.10;;
5710;SDS011;61291;52.524;13.422;2023-06-14T07:05:03;79.97;;;74.07;;
5710;SDS011;61291;52.524;13.422;2023-06-14T07:07:29;75.00;;;68.97;;
5710;SDS011;61291;52.524;13.422;2023-06-14T07:09:55;77.27;;;72.27;;
5710;SDS011;61291;52.524;13.422;2023-06-14T07:12:22;75.30;;;69.50;;
5710;SDS011;61291;52.524;13.422;2023-06-14T07:14:48;73.70;;;68.27;;
5710;SDS011;61291;52.524;13.422;2023-06-14T07:17:13;79.27;;;73.60;;
5710;SDS011;61291;52.524;13.422;2023-06-14T07:19:39;80.33;;;75.20;;
5710;SDS011;61291;52.524;13.422;2023-06-14T07:22:04;70.40;;;65.50;;
5710;SDS011;61291;52.524;13.422;2023-06-14T07:24:30;77.30;;;71.40;;
5710;SDS011;61291;52.524;13.422;2023-06-14T07:26:55;81.10;;;75.70;;
5710;SDS011;61291;52.524;13.422;2023-06-14T07:29:21;79.80;;;74.30;;
5710;SDS011;61291;52.524;13.422;2023-06-14T07:31:47;79.23;;;73.33;;
5710;SDS011;61291;52.524;13.422;2023-06-14T07:34:13;77.90;;;72.67;;
5710;SDS011;61291;52.524;13.422;2023-06-14T07:36:38;74.03;;;68.73;;
5710;SDS011;61291;52.524;13.422;2023-06-14T07:39:04;82.73;;;76.37;;
5710;SDS011;61291;52.524;13.422;2023-06-14T07:41:31;74.73;;;69.17;;
5710;SDS011;61291;52.524;13.422;2023-06-14T07:43:57;75.73;;;69.43;;
5710;SDS011;61291;52.524;13.422;2023-06-14T07:46:23;80.17;;;73.30;;
5710;SDS011;61291;52.524;13.422;2023-06-14T07:48:48;74.97;;;69.38;;
5710;SDS011;61291;52.524;13.422;2023-06-14T07:51:14;76.27;;;70.87;;
5710;SDS011;61291;52.524;13.422;2023-06-14T07:53:39;73.70;;;68.60;;
5710;SDS011;61291;52.524;13.422;2023-06-14T07:56:06;74.37;;;68.03;;
5710;SDS011;61291;52.524;13.422;2023-06-14T07:58:31;68.27;;;63.07;;
5710;SDS011;61291;52.524;13.422;2023-06-14T08:00:56;72.90;;;67.20;;
5710;SDS011;61291;52.524;13.422;2023-06-14T08:03:22;78.47;;;72.50;;
5710;SDS011;61291;52.524;13.422;2023-06-14T08:05:48;76.40;;;70.83;;
5710;SDS011;61291;52.524;13.422;2023-06-14T08:08:13;65.30;;;60.67;;
5710;SDS011;61291;52.524;13.422;2023-06-14T08:10:39;74.53;;;69.47;;
5710;SDS011;61291;52.524;13.422;2023-06-14T08:13:04;69.87;;;65.07;;
5710;SDS011;61291;52.524;13.422;2023-06-14T08:15:30;72.53;;;67.40;;
5710;SDS011;61291;52.524;13.422;2023-06-14T08:17:55;68.10;;;63.40;;
5710;SDS011;61291;52.524;13.422;2023-06-14T08:20:21;72.80;;;67.60;;
5710;SDS011;61291;52.524;13.422;2023-06-14T08:22:47;75.23;;;69.83;;
5710;SDS011;61291;52.524;13.422;2023-06-14T08:25:13;69.70;;;64.60;;
5710;SDS011;61291;52.524;13.422;2023-06-14T08:27:39;79.20;;;70.00;;
5710;SDS011;61291;52.524;13.422;2023-06-14T08:30:05;82.87;;;76.90;;
5710;SDS011;61291;52.524;13.422;2023-06-14T08:32:32;81.00;;;75.20;;
5710;SDS011;61291;52.524;13.422;2023-06-14T08:35:01;69.97;;;64.70;;
5710;SDS011;61291;52.524;13.422;2023-06-14T08:37:27;77.43;;;72.13;;
5710;SDS011;61291;52.524;13.422;2023-06-14T08:39:54;75.00;;;70.10;;
5710;SDS011;61291;52.524;13.422;2023-06-14T08:42:21;72.47;;;67.57;;
5710;SDS011;61291;52.524;13.422;2023-06-14T08:44:49;72.93;;;67.83;;
5710;SDS011;61291;52.524;13.422;2023-06-14T08:47:14;71.83;;;66.93;;
5710;SDS011;61291;52.524;13.422;2023-06-14T08:49:42;68.90;;;64.07;;
5710;SDS011;61291;52.524;13.422;2023-06-14T08:52:12;72.13;;;66.67;;
5710;SDS011;61291;52.524;13.422;2023-06-14T08:54:40;65.87;;;61.43;;
5710;SDS011;61291;52.524;13.422;2023-06-14T08:57:08;67.57;;;62.77;;
5710;SDS011;61291;52.524;13.422;2023-06-14T08:59:40;66.70;;;61.57;;
5710;SDS011;61291;52.524;13.422;2023-06-14T09:02:14;72.77;;;67.83;;
5710;SDS011;61291;52.524;13.422;2023-06-14T09:04:42;71.23;;;65.83;;
5710;SDS011;61291;52.524;13.422;2023-06-14T09:07:09;69.00;;;64.10;;
5710;SDS011;61291;52.524;13.422;2023-06-14T09:09:38;68.20;;;63.00;;
5710;SDS011;61291;52.524;13.422;2023-06-14T09:12:06;72.70;;;67.40;;
5710;SDS011;61291;52.524;13.422;2023-06-14T09:14:40;62.23;;;57.23;;
5710;SDS011;61291;52.524;13.422;2023-06-14T09:17:07;69.47;;;63.93;;
5710;SDS011;61291;52.524;13.422;2023-06-14T09:19:33;63.67;;;58.67;;
5710;SDS011;61291;52.524;13.422;2023-06-14T09:22:00;70.70;;;65.53;;
5710;SDS011;61291;52.524;13.422;2023-06-14T09:24:26;68.70;;;64.00;;
5710;SDS011;61291;52.524;13.422;2023-06-14T09:26:51;71.47;;;66.30;;
5710;SDS011;61291;52.524;13.422;2023-06-14T09:29:17;68.83;;;64.23;;
5710;SDS011;61291;52.524;13.422;2023-06-14T09:31:45;67.77;;;63.13;;
5710;SDS011;61291;52.524;13.422;2023-06-14T09:34:11;63.20;;;59.00;;
5710;SDS011;61291;52.524;13.422;2023-06-14T09:36:37;65.63;;;60.63;;
5710;SDS011;61291;52.524;13.422;2023-06-14T09:39:07;74.20;;;68.93;;
5710;SDS011;61291;52.524;13.422;2023-06-14T09:41:34;67.27;;;61.43;;
5710;SDS011;61291;52.524;13.422;2023-06-14T09:44:09;67.03;;;62.27;;
5710;SDS011;61291;52.524;13.422;2023-06-14T09:46:38;70.37;;;64.30;;
5710;SDS011;61291;52.524;13.422;2023-06-14T09:49:04;67.90;;;63.13;;
5710;SDS011;61291;52.524;13.422;2023-06-14T09:51:30;68.07;;;62.83;;
5710;SDS011;61291;52.524;13.422;2023-06-14T09:54:02;65.70;;;60.80;;
5710;SDS011;61291;52.524;13.422;2023-06-14T09:56:36;66.70;;;62.30;;
5710;SDS011;61291;52.524;13.422;2023-06-14T09:59:04;69.33;;;64.50;;
5710;SDS011;61291;52.524;13.422;2023-06-14T10:01:33;66.00;;;60.80;;
5710;SDS011;61291;52.524;13.422;2023-06-14T10:04:01;70.93;;;66.43;;
5710;SDS011;61291;52.524;13.422;2023-06-14T10:06:28;68.60;;;64.10;;
5710;SDS011;61291;52.524;13.422;2023-06-14T10:08:59;66.07;;;61.13;;
5710;SDS011;61291;52.524;13.422;2023-06-14T10:11:28;63.70;;;59.30;;
5710;SDS011;61291;52.524;13.422;2023-06-14T10:13:54;66.67;;;62.07;;
5710;SDS011;61291;52.524;13.422;2023-06-14T10:16:29;59.63;;;55.07;;
5710;SDS011;61291;52.524;13.422;2023-06-14T10:19:03;61.33;;;57.30;;
5710;SDS011;61291;52.524;13.422;2023-06-14T10:21:46;62.50;;;58.10;;
5710;SDS011;61291;52.524;13.422;2023-06-14T10:24:30;64.67;;;60.03;;
5710;SDS011;61291;52.524;13.422;2023-06-14T10:26:58;62.20;;;57.90;;
5710;SDS011;61291;52.524;13.422;2023-06-14T10:29:27;66.27;;;61.87;;
5710;SDS011;61291;52.524;13.422;2023-06-14T10:31:57;65.97;;;61.33;;
5710;SDS011;61291;52.524;13.422;2023-06-14T10:34:25;67.80;;;62.23;;
5710;SDS011;61291;52.524;13.422;2023-06-14T10:37:04;67.50;;;62.40;;
5710;SDS011;61291;52.524;13.422;2023-06-14T10:39:38;61.27;;;57.13;;
5710;SDS011;61291;52.524;13.422;2023-06-14T10:42:08;64.60;;;59.90;;
5710;SDS011;61291;52.524;13.422;2023-06-14T10:44:38;68.17;;;63.47;;
5710;SDS011;61291;52.524;13.422;2023-06-14T10:50:03;66.00;;;61.50;;
5710;SDS011;61291;52.524;13.422;2023-06-14T10:52:32;68.33;;;63.80;;
5710;SDS011;61291;52.524;13.422;2023-06-14T10:55:13;65.47;;;61.07;;
5710;SDS011;61291;52.524;13.422;2023-06-14T10:57:49;67.40;;;62.57;;
5710;SDS011;61291;52.524;13.422;2023-06-14T11:00:17;61.20;;;56.10;;
5710;SDS011;61291;52.524;13.422;2023-06-14T11:03:19;68.10;;;62.83;;
5710;SDS011;61291;52.524;13.422;2023-06-14T11:05:56;68.13;;;62.17;;
5710;SDS011;61291;52.524;13.422;2023-06-14T11:11:29;73.10;;;67.87;;
5710;SDS011;61291;52.524;13.422;2023-06-14T11:13:58;67.40;;;62.70;;
5710;SDS011;61291;52.524;13.422;2023-06-14T11:16:27;67.93;;;63.23;;
5710;SDS011;61291;52.524;13.422;2023-06-14T11:18:53;66.53;;;61.03;;
5710;SDS011;61291;52.524;13.422;2023-06-14T11:21:18;71.00;;;66.17;;
5710;SDS011;61291;52.524;13.422;2023-06-14T11:23:51;66.07;;;61.07;;
5710;SDS011;61291;52.524;13.422;2023-06-14T11:26:27;70.22;;;65.13;;
5710;SDS011;61291;52.524;13.422;2023-06-14T11:28:57;66.97;;;62.37;;
5710;SDS011;61291;52.524;13.422;2023-06-14T11:31:24;69.53;;;64.87;;
5710;SDS011;61291;52.524;13.422;2023-06-14T11:33:52;67.63;;;62.93;;
5710;SDS011;61291;52.524;13.422;2023-06-14T11:36:20;69.73;;;64.50;;
5710;SDS011;61291;52.524;13.422;2023-06-14T11:38:45;68.10;;;63.67;;
5710;SDS011;61291;52.524;13.422;2023-06-14T11:41:11;72.53;;;67.50;;
5710;SDS011;61291;52.524;13.422;2023-06-14T11:43:36;70.90;;;65.63;;
5710;SDS011;61291;52.524;13.422;2023-06-14T11:46:02;68.37;;;63.63;;
5710;SDS011;61291;52.524;13.422;2023-06-14T11:48:37;73.80;;;67.90;;
5710;SDS011;61291;52.524;13.422;2023-06-14T11:51:04;73.83;;;68.67;;
5710;SDS011;61291;52.524;13.422;2023-06-14T11:53:30;71.60;;;66.37;;
5710;SDS011;61291;52.524;13.422;2023-06-14T11:55:55;83.17;;;77.47;;
5710;SDS011;61291;52.524;13.422;2023-06-14T11:58:22;78.03;;;72.67;;
5710;SDS011;61291;52.524;13.422;2023-06-14T12:00:50;79.50;;;73.90;;
5710;SDS011;61291;52.524;13.422;2023-06-14T12:03:16;71.47;;;66.57;;
5710;SDS011;61291;52.524;13.422;2023-06-14T12:05:42;80.87;;;73.97;;
5710;SDS011;61291;52.524;13.422;2023-06-14T12:08:08;69.00;;;64.23;;
5710;SDS011;61291;52.524;13.422;2023-06-14T12:10:40;78.67;;;73.17;;
5710;SDS011;61291;52.524;13.422;2023-06-14T12:13:09;70.93;;;66.03;;
5710;SDS011;61291;52.524;13.422;2023-06-14T12:15:35;78.20;;;73.00;;
5710;SDS011;61291;52.524;13.422;2023-06-14T12:18:01;74.80;;;69.73;;
5710;SDS011;61291;52.524;13.422;2023-06-14T12:20:31;77.27;;;72.23;;
5710;SDS011;61291;52.524;13.422;2023-06-14T12:23:02;85.40;;;79.60;;
5710;SDS011;61291;52.524;13.422;2023-06-14T12:25:30;84.20;;;78.00;;
5710;SDS011;61291;52.524;13.422;2023-06-14T12:27:59;86.17;;;80.67;;
5710;SDS011;61291;52.524;13.422;2023-06-14T12:30:32;81.33;;;75.70;;
5710;SDS011;61291;52.524;13.422;2023-06-14T12:32:59;79.20;;;72.97;;
5710;SDS011;61291;52.524;13.422;2023-06-14T12:35:25;83.23;;;77.43;;
5710;SDS011;61291;52.524;13.422;2023-06-14T12:37:50;76.93;;;71.43;;
5710;SDS011;61291;52.524;13.422;2023-06-14T12:40:16;78.50;;;73.13;;
5710;SDS011;61291;52.524;13.422;2023-06-14T12:42:42;67.23;;;62.33;;
5710;SDS011;61291;52.524;13.422;2023-06-14T12:45:07;82.60;;;77.07;;
5710;SDS011;61291;52.524;13.422;2023-06-14T12:47:33;71.10;;;66.20;;
5710;SDS011;61291;52.524;13.422;2023-06-14T12:49:59;80.50;;;74.67;;
5710;SDS011;61291;52.524;13.422;2023-06-14T12:52:24;83.47;;;77.87;;
5710;SDS011;61291;52.524;13.422;2023-06-14T12:54:50;71.13;;;65.93;;
5710;SDS011;61291;52.524;13.422;2023-06-14T12:57:16;72.03;;;66.50;;
5710;SDS011;61291;52.524;13.422;2023-06-14T12:59:41;67.53;;;63.13;;
5710;SDS011;61291;52.524;13.422;2023-06-14T13:02:10;71.33;;;66.23;;
5710;SDS011;61291;52.524;13.422;2023-06-14T13:04:36;66.37;;;61.57;;
5710;SDS011;61291;52.524;13.422;2023-06-14T13:07:02;64.50;;;59.57;;
5710;SDS011;61291;52.524;13.422;2023-06-14T13:09:27;68.33;;;63.20;;
5710;SDS011;61291;52.524;13.422;2023-06-14T13:11:53;81.27;;;75.20;;
5710;SDS011;61291;52.524;13.422;2023-06-14T13:14:18;79.50;;;74.17;;
5710;SDS011;61291;52.524;13.422;2023-06-14T13:16:43;69.20;;;64.40;;
5710;SDS011;61291;52.524;13.422;2023-06-14T13:19:09;67.07;;;62.57;;
5710;SDS011;61291;52.524;13.422;2023-06-14T13:21:34;72.13;;;67.53;;
5710;SDS011;61291;52.524;13.422;2023-06-14T13:24:00;67.40;;;62.43;;
5710;SDS011;61291;52.524;13.422;2023-06-14T13:26:25;76.10;;;70.40;;
5710;SDS011;61291;52.524;13.422;2023-06-14T13:28:51;79.67;;;73.93;;
5710;SDS011;61291;52.524;13.422;2023-06-14T13:31:17;74.30;;;68.90;;
5710;SDS011;61291;52.524;13.422;2023-06-14T13:33:42;80.60;;;74.87;;
5710;SDS011;61291;52.524;13.422;2023-06-14T13:36:08;70.73;;;65.00;;
5710;SDS011;61291;52.524;13.422;2023-06-14T13:38:33;72.53;;;66.50;;
5710;SDS011;61291;52.524;13.422;2023-06-14T13:40:59;72.07;;;67.00;;
5710;SDS011;61291;52.524;13.422;2023-06-14T13:43:25;69.80;;;65.03;;
5710;SDS011;61291;52.524;13.422;2023-06-14T13:45:50;75.37;;;70.50;;
5710;SDS011;61291;52.524;13.422;2023-06-14T13:48:16;67.83;;;62.93;;
5710;SDS011;61291;52.524;13.422;2023-06-14T13:50:42;73.13;;;68.20;;
5710;SDS011;61291;52.524;13.422;2023-06-14T13:53:07;65.30;;;60.67;;
5710;SDS011;61291;52.524;13.422;2023-06-14T13:55:33;73.80;;;67.50;;
5710;SDS011;61291;52.524;13.422;2023-06-14T13:57:58;67.17;;;61.67;;
5710;SDS011;61291;52.524;13.422;2023-06-14T14:00:24;68.70;;;63.70;;
5710;SDS011;61291;52.524;13.422;2023-06-14T14:02:50;61.63;;;57.30;;
5710;SDS011;61291;52.524;13.422;2023-06-14T14:05:15;76.77;;;70.47;;
5710;SDS011;61291;52.524;13.422;2023-06-14T14:07:41;62.27;;;57.90;;
5710;SDS011;61291;52.524;13.422;2023-06-14T14:10:07;56.30;;;52.43;;
5710;SDS011;61291;52.524;13.422;2023-06-14T14:12:33;69.57;;;64.40;;
5710;SDS011;61291;52.524;13.422;2023-06-14T14:14:59;62.33;;;57.30;;
5710;SDS011;61291;52.524;13.422;2023-06-14T14:17:24;69.07;;;64.03;;
5710;SDS011;61291;52.524;13.422;2023-06-14T14:19:50;66.10;;;61.43;;
5710;SDS011;61291;52.524;13.422;2023-06-14T14:22:15;66.20;;;61.70;;
5710;SDS011;61291;52.524;13.422;2023-06-14T14:24:41;64.07;;;59.37;;
5710;SDS011;61291;52.524;13.422;2023-06-14T14:27:06;66.67;;;62.13;;
5710;SDS011;61291;52.524;13.422;2023-06-14T14:29:32;66.73;;;61.17;;